sensor_id;sensor_type;location;lat;lon;timestamp;P1;durP1;ratioP1;P2;durP2;ratioP2
5026;SDS011;2532;52.480;13.354;2022-12-24T00:01:33;17.87;;;10.97;;
5026;SDS011;2532;52.480;13.354;2022-12-24T00:04:00;20.43;;;12.07;;
5026;SDS011;2532;52.480;13.354;2022-12-24T00:06:27;17.50;;;10.13;;
5026;SDS011;2532;52.480;13.354;2022-12-24T00:08:54;17.77;;;11.03;;
5026;SDS011;2532;52.480;13.354;2022-12-24T00:11:21;18.07;;;9.70;;
5026;SDS011;2532;52.480;13.354;2022-12-24T00:13:48;16.80;;;9.87;;
5026;SDS011;2532;52.480;13.354;2022-12-24T00:16:18;16.33;;;9.50;;
5026;SDS011;2532;52.480;13.354;2022-12-24T00:18:46;16.67;;;9.67;;
5026;SDS011;2532;52.480;13.354;2022-12-24T00:21:13;13.63;;;8.90;;
5026;SDS011;2532;52.480;13.354;2022-12-24T00:23:43;15.07;;;9.73;;
5026;SDS011;2532;52.480;13.354;2022-12-24T00:26:12;16.17;;;10.50;;
5026;SDS011;2532;52.480;13.354;2022-12-24T00:28:39;15.13;;;9.50;;
5026;SDS011;2532;52.480;13.354;2022-12-24T00:31:09;19.73;;;10.20;;
5026;SDS011;2532;52.480;13.354;2022-12-24T00:33:38;16.20;;;9.80;;
5026;SDS011;2532;52.480;13.354;2022-12-24T00:36:07;13.43;;;9.30;;
5026;SDS011;2532;52.480;13.354;2022-12-24T00:38:34;14.10;;;8.77;;
5026;SDS011;2532;52.480;13.354;2022-12-24T00:41:02;15.40;;;9.27;;
5026;SDS011;2532;52.480;13.354;2022-12-24T00:43:48;14.13;;;8.77;;
5026;SDS011;2532;52.480;13.354;2022-12-24T00:46:15;14.13;;;8.90;;
5026;SDS011;2532;52.480;13.354;2022-12-24T00:48:42;14.23;;;8.57;;
5026;SDS011;2532;52.480;13.354;2022-12-24T00:51:11;15.97;;;10.03;;
5026;SDS011;2532;52.480;13.354;2022-12-24T00:53:38;14.60;;;9.20;;
5026;SDS011;2532;52.480;13.354;2022-12-24T00:56:05;14.13;;;8.87;;
5026;SDS011;2532;52.480;13.354;2022-12-24T00:58:33;14.10;;;9.40;;
5026;SDS011;2532;52.480;13.354;2022-12-24T01:01:00;16.27;;;9.30;;
5026;SDS011;2532;52.480;13.354;2022-12-24T01:03:28;15.97;;;8.80;;
5026;SDS011;2532;52.480;13.354;2022-12-24T01:06:04;13.77;;;8.87;;
5026;SDS011;2532;52.480;13.354;2022-12-24T01:08:33;12.97;;;8.30;;
5026;SDS011;2532;52.480;13.354;2022-12-24T01:11:02;13.30;;;8.80;;
5026;SDS011;2532;52.480;13.354;2022-12-24T01:13:31;12.03;;;8.03;;
5026;SDS011;2532;52.480;13.354;2022-12-24T01:15:58;17.10;;;9.37;;
5026;SDS011;2532;52.480;13.354;2022-12-24T01:18:25;11.43;;;8.07;;
5026;SDS011;2532;52.480;13.354;2022-12-24T01:20:56;15.70;;;9.23;;
5026;SDS011;2532;52.480;13.354;2022-12-24T01:23:24;15.67;;;9.23;;
5026;SDS011;2532;52.480;13.354;2022-12-24T01:25:53;17.30;;;10.00;;
5026;SDS011;2532;52.480;13.354;2022-12-24T01:28:20;16.80;;;8.87;;
5026;SDS011;2532;52.480;13.354;2022-12-24T01:30:49;13.70;;;9.00;;
5026;SDS011;2532;52.480;13.354;2022-12-24T01:33:16;16.03;;;9.13;;
5026;SDS011;2532;52.480;13.354;2022-12-24T01:35:43;12.83;;;8.20;;
5026;SDS011;2532;52.480;13.354;2022-12-24T01:38:11;12.40;;;8.13;;
5026;SDS011;2532;52.480;13.354;2022-12-24T01:40:38;12.10;;;7.40;;
5026;SDS011;2532;52.480;13.354;2022-12-24T01:43:25;15.13;;;8.60;;
5026;SDS011;2532;52.480;13.354;2022-12-24T01:45:54;12.63;;;7.40;;
5026;SDS011;2532;52.480;13.354;2022-12-24T01:48:24;15.23;;;7.57;;
5026;SDS011;2532;52.480;13.354;2022-12-24T01:51:00;11.20;;;7.80;;
5026;SDS011;2532;52.480;13.354;2022-12-24T01:53:31;11.57;;;7.13;;
5026;SDS011;2532;52.480;13.354;2022-12-24T01:56:01;9.63;;;6.83;;
5026;SDS011;2532;52.480;13.354;2022-12-24T01:58:31;16.10;;;7.70;;
5026;SDS011;2532;52.480;13.354;2022-12-24T02:00:58;11.83;;;8.10;;
5026;SDS011;2532;52.480;13.354;2022-12-24T02:03:25;12.43;;;8.00;;
5026;SDS011;2532;52.480;13.354;2022-12-24T02:05:53;11.00;;;7.30;;
5026;SDS011;2532;52.480;13.354;2022-12-24T02:08:22;11.40;;;6.93;;
5026;SDS011;2532;52.480;13.354;2022-12-24T02:11:07;13.37;;;8.10;;
5026;SDS011;2532;52.480;13.354;2022-12-24T02:13:36;11.50;;;7.80;;
5026;SDS011;2532;52.480;13.354;2022-12-24T02:16:05;14.40;;;8.20;;
5026;SDS011;2532;52.480;13.354;2022-12-24T02:18:42;11.87;;;8.00;;
5026;SDS011;2532;52.480;13.354;2022-12-24T02:24:34;12.90;;;8.20;;
5026;SDS011;2532;52.480;13.354;2022-12-24T02:27:27;15.53;;;9.10;;
5026;SDS011;2532;52.480;13.354;2022-12-24T02:30:05;15.80;;;9.30;;
5026;SDS011;2532;52.480;13.354;2022-12-24T02:32:38;10.93;;;7.77;;
5026;SDS011;2532;52.480;13.354;2022-12-24T02:35:13;13.67;;;8.00;;
5026;SDS011;2532;52.480;13.354;2022-12-24T02:37:43;12.90;;;8.40;;
5026;SDS011;2532;52.480;13.354;2022-12-24T02:40:15;14.03;;;8.40;;
5026;SDS011;2532;52.480;13.354;2022-12-24T02:42:48;14.90;;;8.77;;
5026;SDS011;2532;52.480;13.354;2022-12-24T02:45:21;18.37;;;9.00;;
5026;SDS011;2532;52.480;13.354;2022-12-24T02:47:51;15.03;;;9.50;;
5026;SDS011;2532;52.480;13.354;2022-12-24T02:50:20;20.77;;;10.80;;
5026;SDS011;2532;52.480;13.354;2022-12-24T02:52:48;16.17;;;9.17;;
5026;SDS011;2532;52.480;13.354;2022-12-24T02:55:16;15.40;;;9.47;;
5026;SDS011;2532;52.480;13.354;2022-12-24T02:57:53;15.13;;;9.40;;
5026;SDS011;2532;52.480;13.354;2022-12-24T03:00:36;13.63;;;9.70;;
5026;SDS011;2532;52.480;13.354;2022-12-24T03:03:18;15.47;;;8.93;;
5026;SDS011;2532;52.480;13.354;2022-12-24T03:05:55;13.80;;;8.60;;
5026;SDS011;2532;52.480;13.354;2022-12-24T03:08:35;14.20;;;9.57;;
5026;SDS011;2532;52.480;13.354;2022-12-24T03:11:10;15.17;;;9.00;;
5026;SDS011;2532;52.480;13.354;2022-12-24T03:13:38;17.97;;;10.20;;
5026;SDS011;2532;52.480;13.354;2022-12-24T03:16:09;17.70;;;10.30;;
5026;SDS011;2532;52.480;13.354;2022-12-24T03:18:40;13.50;;;9.83;;
5026;SDS011;2532;52.480;13.354;2022-12-24T03:21:09;16.13;;;9.83;;
5026;SDS011;2532;52.480;13.354;2022-12-24T03:23:39;16.73;;;9.07;;
5026;SDS011;2532;52.480;13.354;2022-12-24T03:26:08;18.23;;;9.03;;
5026;SDS011;2532;52.480;13.354;2022-12-24T03:28:36;15.70;;;10.20;;
5026;SDS011;2532;52.480;13.354;2022-12-24T03:31:05;16.73;;;10.10;;
5026;SDS011;2532;52.480;13.354;2022-12-24T03:33:35;15.37;;;9.83;;
5026;SDS011;2532;52.480;13.354;2022-12-24T03:36:04;18.03;;;10.57;;
5026;SDS011;2532;52.480;13.354;2022-12-24T03:38:32;15.00;;;9.17;;
5026;SDS011;2532;52.480;13.354;2022-12-24T03:40:59;18.50;;;10.30;;
5026;SDS011;2532;52.480;13.354;2022-12-24T03:43:27;17.57;;;10.70;;
5026;SDS011;2532;52.480;13.354;2022-12-24T03:45:54;15.50;;;10.10;;
5026;SDS011;2532;52.480;13.354;2022-12-24T03:48:22;16.13;;;9.70;;
5026;SDS011;2532;52.480;13.354;2022-12-24T03:50:49;16.77;;;10.83;;
5026;SDS011;2532;52.480;13.354;2022-12-24T03:53:16;16.50;;;10.80;;
5026;SDS011;2532;52.480;13.354;2022-12-24T03:55:42;18.37;;;10.80;;
5026;SDS011;2532;52.480;13.354;2022-12-24T03:58:09;19.97;;;11.57;;
5026;SDS011;2532;52.480;13.354;2022-12-24T04:00:36;17.10;;;9.60;;
5026;SDS011;2532;52.480;13.354;2022-12-24T04:03:07;16.20;;;10.43;;
5026;SDS011;2532;52.480;13.354;2022-12-24T04:05:35;19.60;;;11.47;;
5026;SDS011;2532;52.480;13.354;2022-12-24T04:08:02;15.90;;;10.10;;
5026;SDS011;2532;52.480;13.354;2022-12-24T04:10:29;17.97;;;10.70;;
5026;SDS011;2532;52.480;13.354;2022-12-24T04:12:55;18.00;;;11.30;;
5026;SDS011;2532;52.480;13.354;2022-12-24T04:15:22;17.90;;;11.20;;
5026;SDS011;2532;52.480;13.354;2022-12-24T04:17:49;16.53;;;11.10;;
5026;SDS011;2532;52.480;13.354;2022-12-24T04:20:16;15.90;;;10.33;;
5026;SDS011;2532;52.480;13.354;2022-12-24T04:22:45;17.63;;;10.80;;
5026;SDS011;2532;52.480;13.354;2022-12-24T04:25:11;20.07;;;10.87;;
5026;SDS011;2532;52.480;13.354;2022-12-24T04:27:38;18.97;;;11.20;;
5026;SDS011;2532;52.480;13.354;2022-12-24T04:30:06;15.40;;;9.97;;
5026;SDS011;2532;52.480;13.354;2022-12-24T04:32:33;18.93;;;12.00;;
5026;SDS011;2532;52.480;13.354;2022-12-24T04:35:00;17.70;;;10.30;;
5026;SDS011;2532;52.480;13.354;2022-12-24T04:37:27;17.53;;;10.90;;
5026;SDS011;2532;52.480;13.354;2022-12-24T04:39:55;14.97;;;10.20;;
5026;SDS011;2532;52.480;13.354;2022-12-24T04:42:22;17.30;;;10.33;;
5026;SDS011;2532;52.480;13.354;2022-12-24T04:44:49;17.93;;;9.80;;
5026;SDS011;2532;52.480;13.354;2022-12-24T04:47:16;16.60;;;10.60;;
5026;SDS011;2532;52.480;13.354;2022-12-24T04:49:43;17.60;;;10.40;;
5026;SDS011;2532;52.480;13.354;2022-12-24T04:52:10;14.17;;;10.00;;
5026;SDS011;2532;52.480;13.354;2022-12-24T04:54:36;13.67;;;9.10;;
5026;SDS011;2532;52.480;13.354;2022-12-24T04:57:05;14.50;;;9.70;;
5026;SDS011;2532;52.480;13.354;2022-12-24T04:59:31;15.70;;;10.43;;
5026;SDS011;2532;52.480;13.354;2022-12-24T05:01:58;16.43;;;11.07;;
5026;SDS011;2532;52.480;13.354;2022-12-24T05:04:25;13.57;;;9.67;;
5026;SDS011;2532;52.480;13.354;2022-12-24T05:06:52;15.40;;;10.10;;
5026;SDS011;2532;52.480;13.354;2022-12-24T05:09:19;16.13;;;9.80;;
5026;SDS011;2532;52.480;13.354;2022-12-24T05:11:46;16.33;;;10.43;;
5026;SDS011;2532;52.480;13.354;2022-12-24T05:14:14;14.87;;;10.17;;
5026;SDS011;2532;52.480;13.354;2022-12-24T05:16:41;16.43;;;10.47;;
5026;SDS011;2532;52.480;13.354;2022-12-24T05:19:08;14.13;;;9.77;;
5026;SDS011;2532;52.480;13.354;2022-12-24T05:21:35;16.50;;;10.50;;
5026;SDS011;2532;52.480;13.354;2022-12-24T05:24:02;14.80;;;10.17;;
5026;SDS011;2532;52.480;13.354;2022-12-24T05:26:48;18.00;;;11.00;;
5026;SDS011;2532;52.480;13.354;2022-12-24T05:29:18;17.63;;;10.40;;
5026;SDS011;2532;52.480;13.354;2022-12-24T05:31:45;15.13;;;10.80;;
5026;SDS011;2532;52.480;13.354;2022-12-24T05:34:12;14.80;;;10.13;;
5026;SDS011;2532;52.480;13.354;2022-12-24T05:36:41;16.83;;;10.93;;
5026;SDS011;2532;52.480;13.354;2022-12-24T05:39:08;17.43;;;11.00;;
5026;SDS011;2532;52.480;13.354;2022-12-24T05:41:38;16.23;;;11.10;;
5026;SDS011;2532;52.480;13.354;2022-12-24T05:44:05;16.80;;;11.43;;
5026;SDS011;2532;52.480;13.354;2022-12-24T05:46:36;18.67;;;12.27;;
5026;SDS011;2532;52.480;13.354;2022-12-24T05:49:03;19.50;;;12.37;;
5026;SDS011;2532;52.480;13.354;2022-12-24T05:51:30;19.10;;;11.90;;
5026;SDS011;2532;52.480;13.354;2022-12-24T05:53:57;21.97;;;12.37;;
5026;SDS011;2532;52.480;13.354;2022-12-24T05:56:23;17.77;;;12.03;;
5026;SDS011;2532;52.480;13.354;2022-12-24T05:58:51;21.30;;;11.90;;
5026;SDS011;2532;52.480;13.354;2022-12-24T06:01:18;19.80;;;12.33;;
5026;SDS011;2532;52.480;13.354;2022-12-24T06:03:47;17.83;;;12.10;;
5026;SDS011;2532;52.480;13.354;2022-12-24T06:06:15;18.83;;;11.70;;
5026;SDS011;2532;52.480;13.354;2022-12-24T06:08:45;20.93;;;12.53;;
5026;SDS011;2532;52.480;13.354;2022-12-24T06:11:15;20.50;;;12.57;;
5026;SDS011;2532;52.480;13.354;2022-12-24T06:13:43;18.83;;;12.80;;
5026;SDS011;2532;52.480;13.354;2022-12-24T06:16:11;20.77;;;11.80;;
5026;SDS011;2532;52.480;13.354;2022-12-24T06:18:39;18.83;;;11.37;;
5026;SDS011;2532;52.480;13.354;2022-12-24T06:21:11;19.07;;;11.67;;
5026;SDS011;2532;52.480;13.354;2022-12-24T06:23:39;19.27;;;12.80;;
5026;SDS011;2532;52.480;13.354;2022-12-24T06:26:08;18.50;;;12.43;;
5026;SDS011;2532;52.480;13.354;2022-12-24T06:28:37;18.93;;;11.23;;
5026;SDS011;2532;52.480;13.354;2022-12-24T06:31:05;19.53;;;12.00;;
5026;SDS011;2532;52.480;13.354;2022-12-24T06:33:32;22.00;;;11.67;;
5026;SDS011;2532;52.480;13.354;2022-12-24T06:36:00;19.80;;;12.17;;
5026;SDS011;2532;52.480;13.354;2022-12-24T06:38:29;19.20;;;11.50;;
5026;SDS011;2532;52.480;13.354;2022-12-24T06:40:56;19.73;;;13.40;;
5026;SDS011;2532;52.480;13.354;2022-12-24T06:43:23;20.50;;;12.73;;
5026;SDS011;2532;52.480;13.354;2022-12-24T06:45:53;23.37;;;13.67;;
5026;SDS011;2532;52.480;13.354;2022-12-24T06:48:20;21.83;;;12.37;;
5026;SDS011;2532;52.480;13.354;2022-12-24T06:50:48;18.07;;;11.73;;
5026;SDS011;2532;52.480;13.354;2022-12-24T06:53:15;20.13;;;11.50;;
5026;SDS011;2532;52.480;13.354;2022-12-24T06:55:43;20.67;;;12.10;;
5026;SDS011;2532;52.480;13.354;2022-12-24T06:58:10;19.73;;;12.17;;
5026;SDS011;2532;52.480;13.354;2022-12-24T07:00:37;18.03;;;12.20;;
5026;SDS011;2532;52.480;13.354;2022-12-24T07:03:04;21.50;;;12.10;;
5026;SDS011;2532;52.480;13.354;2022-12-24T07:05:31;19.20;;;11.80;;
5026;SDS011;2532;52.480;13.354;2022-12-24T07:07:58;21.03;;;12.37;;
5026;SDS011;2532;52.480;13.354;2022-12-24T07:10:24;16.77;;;10.80;;
5026;SDS011;2532;52.480;13.354;2022-12-24T07:12:53;20.80;;;12.37;;
5026;SDS011;2532;52.480;13.354;2022-12-24T07:15:20;20.53;;;12.03;;
5026;SDS011;2532;52.480;13.354;2022-12-24T07:17:46;20.17;;;12.20;;
5026;SDS011;2532;52.480;13.354;2022-12-24T07:20:13;20.10;;;12.43;;
5026;SDS011;2532;52.480;13.354;2022-12-24T07:22:40;19.60;;;11.80;;
5026;SDS011;2532;52.480;13.354;2022-12-24T07:25:08;19.00;;;12.03;;
5026;SDS011;2532;52.480;13.354;2022-12-24T07:27:36;22.03;;;11.37;;
5026;SDS011;2532;52.480;13.354;2022-12-24T07:30:05;19.43;;;12.10;;
5026;SDS011;2532;52.480;13.354;2022-12-24T07:32:33;25.80;;;14.27;;
5026;SDS011;2532;52.480;13.354;2022-12-24T07:35:00;24.70;;;14.13;;
5026;SDS011;2532;52.480;13.354;2022-12-24T07:37:27;24.40;;;13.03;;
5026;SDS011;2532;52.480;13.354;2022-12-24T07:39:54;24.80;;;12.70;;
5026;SDS011;2532;52.480;13.354;2022-12-24T07:42:21;20.30;;;13.40;;
5026;SDS011;2532;52.480;13.354;2022-12-24T07:44:48;26.63;;;14.17;;
5026;SDS011;2532;52.480;13.354;2022-12-24T07:47:16;22.60;;;13.30;;
5026;SDS011;2532;52.480;13.354;2022-12-24T07:49:43;24.23;;;14.53;;
5026;SDS011;2532;52.480;13.354;2022-12-24T07:52:10;22.53;;;14.00;;
5026;SDS011;2532;52.480;13.354;2022-12-24T07:54:37;22.60;;;13.07;;
5026;SDS011;2532;52.480;13.354;2022-12-24T07:57:04;23.10;;;13.63;;
5026;SDS011;2532;52.480;13.354;2022-12-24T07:59:30;20.27;;;12.63;;
5026;SDS011;2532;52.480;13.354;2022-12-24T08:01:57;22.67;;;13.93;;
5026;SDS011;2532;52.480;13.354;2022-12-24T08:04:26;22.33;;;14.37;;
5026;SDS011;2532;52.480;13.354;2022-12-24T08:06:52;19.00;;;12.27;;
5026;SDS011;2532;52.480;13.354;2022-12-24T08:09:19;19.40;;;13.23;;
5026;SDS011;2532;52.480;13.354;2022-12-24T08:11:46;22.80;;;13.47;;
5026;SDS011;2532;52.480;13.354;2022-12-24T08:14:13;24.97;;;15.37;;
5026;SDS011;2532;52.480;13.354;2022-12-24T08:16:40;25.10;;;13.80;;
5026;SDS011;2532;52.480;13.354;2022-12-24T08:19:07;27.47;;;13.73;;
5026;SDS011;2532;52.480;13.354;2022-12-24T08:21:35;25.90;;;14.73;;
5026;SDS011;2532;52.480;13.354;2022-12-24T08:24:02;21.60;;;13.60;;
5026;SDS011;2532;52.480;13.354;2022-12-24T08:26:30;26.60;;;12.70;;
5026;SDS011;2532;52.480;13.354;2022-12-24T08:28:57;24.17;;;14.20;;
5026;SDS011;2532;52.480;13.354;2022-12-24T08:31:24;26.40;;;13.20;;
5026;SDS011;2532;52.480;13.354;2022-12-24T08:33:50;23.17;;;12.87;;
5026;SDS011;2532;52.480;13.354;2022-12-24T08:36:17;26.17;;;15.00;;
5026;SDS011;2532;52.480;13.354;2022-12-24T08:38:46;28.13;;;14.10;;
5026;SDS011;2532;52.480;13.354;2022-12-24T08:41:12;34.80;;;17.57;;
5026;SDS011;2532;52.480;13.354;2022-12-24T08:43:39;27.17;;;14.07;;
5026;SDS011;2532;52.480;13.354;2022-12-24T08:46:06;28.23;;;15.70;;
5026;SDS011;2532;52.480;13.354;2022-12-24T08:48:33;23.57;;;13.60;;
5026;SDS011;2532;52.480;13.354;2022-12-24T08:51:04;28.03;;;15.67;;
5026;SDS011;2532;52.480;13.354;2022-12-24T08:53:32;25.27;;;13.30;;
5026;SDS011;2532;52.480;13.354;2022-12-24T08:56:02;23.23;;;13.60;;
5026;SDS011;2532;52.480;13.354;2022-12-24T08:58:29;24.60;;;13.17;;
5026;SDS011;2532;52.480;13.354;2022-12-24T09:00:57;22.37;;;13.30;;
5026;SDS011;2532;52.480;13.354;2022-12-24T09:03:24;23.00;;;12.93;;
5026;SDS011;2532;52.480;13.354;2022-12-24T09:05:51;21.33;;;12.63;;
5026;SDS011;2532;52.480;13.354;2022-12-24T09:08:18;24.80;;;14.23;;
5026;SDS011;2532;52.480;13.354;2022-12-24T09:10:45;25.57;;;13.90;;
5026;SDS011;2532;52.480;13.354;2022-12-24T09:13:14;26.00;;;13.93;;
5026;SDS011;2532;52.480;13.354;2022-12-24T09:15:41;24.73;;;14.03;;
5026;SDS011;2532;52.480;13.354;2022-12-24T09:18:07;20.33;;;12.60;;
5026;SDS011;2532;52.480;13.354;2022-12-24T09:20:34;19.97;;;12.67;;
5026;SDS011;2532;52.480;13.354;2022-12-24T09:23:01;21.87;;;12.97;;
5026;SDS011;2532;52.480;13.354;2022-12-24T09:25:28;20.70;;;13.07;;
5026;SDS011;2532;52.480;13.354;2022-12-24T09:27:55;23.30;;;13.50;;
5026;SDS011;2532;52.480;13.354;2022-12-24T09:30:23;27.10;;;15.00;;
5026;SDS011;2532;52.480;13.354;2022-12-24T09:32:50;24.30;;;14.47;;
5026;SDS011;2532;52.480;13.354;2022-12-24T09:35:17;23.97;;;13.47;;
5026;SDS011;2532;52.480;13.354;2022-12-24T09:37:44;25.93;;;14.10;;
5026;SDS011;2532;52.480;13.354;2022-12-24T09:40:14;23.07;;;13.90;;
5026;SDS011;2532;52.480;13.354;2022-12-24T09:42:49;25.93;;;14.30;;
5026;SDS011;2532;52.480;13.354;2022-12-24T09:45:18;26.20;;;13.83;;
5026;SDS011;2532;52.480;13.354;2022-12-24T09:47:56;23.00;;;14.00;;
5026;SDS011;2532;52.480;13.354;2022-12-24T09:50:29;21.93;;;13.70;;
5026;SDS011;2532;52.480;13.354;2022-12-24T09:53:04;28.20;;;15.90;;
5026;SDS011;2532;52.480;13.354;2022-12-24T09:55:41;25.60;;;14.37;;
5026;SDS011;2532;52.480;13.354;2022-12-24T09:58:14;25.50;;;14.53;;
5026;SDS011;2532;52.480;13.354;2022-12-24T10:00:47;26.50;;;14.50;;
5026;SDS011;2532;52.480;13.354;2022-12-24T10:03:16;31.33;;;15.40;;
5026;SDS011;2532;52.480;13.354;2022-12-24T10:05:45;26.10;;;15.27;;
5026;SDS011;2532;52.480;13.354;2022-12-24T10:08:25;21.57;;;14.30;;
5026;SDS011;2532;52.480;13.354;2022-12-24T10:10:59;29.90;;;15.40;;
5026;SDS011;2532;52.480;13.354;2022-12-24T10:13:43;23.10;;;14.17;;
5026;SDS011;2532;52.480;13.354;2022-12-24T10:16:25;22.93;;;13.87;;
5026;SDS011;2532;52.480;13.354;2022-12-24T10:19:00;22.83;;;12.43;;
5026;SDS011;2532;52.480;13.354;2022-12-24T10:21:36;21.23;;;13.30;;
5026;SDS011;2532;52.480;13.354;2022-12-24T10:24:15;26.50;;;14.13;;
5026;SDS011;2532;52.480;13.354;2022-12-24T10:26:47;23.63;;;14.50;;
5026;SDS011;2532;52.480;13.354;2022-12-24T10:29:21;20.73;;;12.53;;
5026;SDS011;2532;52.480;13.354;2022-12-24T10:31:53;21.87;;;12.60;;
5026;SDS011;2532;52.480;13.354;2022-12-24T10:34:24;20.20;;;12.70;;
5026;SDS011;2532;52.480;13.354;2022-12-24T10:36:55;19.57;;;11.93;;
5026;SDS011;2532;52.480;13.354;2022-12-24T10:39:24;22.90;;;12.50;;
5026;SDS011;2532;52.480;13.354;2022-12-24T10:41:52;18.17;;;11.47;;
5026;SDS011;2532;52.480;13.354;2022-12-24T10:44:23;19.53;;;11.83;;
5026;SDS011;2532;52.480;13.354;2022-12-24T10:46:54;19.67;;;12.30;;
5026;SDS011;2532;52.480;13.354;2022-12-24T10:49:24;19.40;;;11.80;;
5026;SDS011;2532;52.480;13.354;2022-12-24T10:51:58;17.07;;;11.17;;
5026;SDS011;2532;52.480;13.354;2022-12-24T10:54:28;13.80;;;9.83;;
5026;SDS011;2532;52.480;13.354;2022-12-24T10:57:03;18.40;;;10.97;;
5026;SDS011;2532;52.480;13.354;2022-12-24T10:59:33;21.43;;;11.93;;
5026;SDS011;2532;52.480;13.354;2022-12-24T11:02:24;14.97;;;10.30;;
5026;SDS011;2532;52.480;13.354;2022-12-24T11:04:53;11.70;;;8.80;;
5026;SDS011;2532;52.480;13.354;2022-12-24T11:07:21;12.93;;;9.10;;
5026;SDS011;2532;52.480;13.354;2022-12-24T11:09:53;13.70;;;9.43;;
5026;SDS011;2532;52.480;13.354;2022-12-24T11:12:22;15.53;;;8.70;;
5026;SDS011;2532;52.480;13.354;2022-12-24T11:14:58;15.03;;;9.50;;
5026;SDS011;2532;52.480;13.354;2022-12-24T11:17:28;13.20;;;9.00;;
5026;SDS011;2532;52.480;13.354;2022-12-24T11:19:55;12.73;;;8.80;;
5026;SDS011;2532;52.480;13.354;2022-12-24T11:22:23;12.80;;;8.47;;
5026;SDS011;2532;52.480;13.354;2022-12-24T11:24:56;12.23;;;8.30;;
5026;SDS011;2532;52.480;13.354;2022-12-24T11:27:28;12.10;;;7.67;;
5026;SDS011;2532;52.480;13.354;2022-12-24T11:30:15;12.10;;;8.43;;
5026;SDS011;2532;52.480;13.354;2022-12-24T11:32:50;10.50;;;7.90;;
5026;SDS011;2532;52.480;13.354;2022-12-24T11:35:38;13.50;;;8.83;;
5026;SDS011;2532;52.480;13.354;2022-12-24T11:38:09;12.63;;;8.97;;
5026;SDS011;2532;52.480;13.354;2022-12-24T11:40:38;12.27;;;8.53;;
5026;SDS011;2532;52.480;13.354;2022-12-24T11:43:10;10.03;;;8.23;;
5026;SDS011;2532;52.480;13.354;2022-12-24T11:45:46;13.40;;;8.77;;
5026;SDS011;2532;52.480;13.354;2022-12-24T11:48:26;12.17;;;8.30;;
5026;SDS011;2532;52.480;13.354;2022-12-24T11:50:55;10.73;;;8.10;;
5026;SDS011;2532;52.480;13.354;2022-12-24T11:53:24;11.20;;;7.73;;
5026;SDS011;2532;52.480;13.354;2022-12-24T11:55:57;9.97;;;7.37;;
5026;SDS011;2532;52.480;13.354;2022-12-24T11:58:27;11.00;;;7.83;;
5026;SDS011;2532;52.480;13.354;2022-12-24T12:01:01;11.50;;;8.30;;
5026;SDS011;2532;52.480;13.354;2022-12-24T12:03:38;12.10;;;8.40;;
5026;SDS011;2532;52.480;13.354;2022-12-24T12:06:11;9.90;;;7.50;;
5026;SDS011;2532;52.480;13.354;2022-12-24T12:08:48;13.50;;;7.40;;
5026;SDS011;2532;52.480;13.354;2022-12-24T12:11:20;13.10;;;8.10;;
5026;SDS011;2532;52.480;13.354;2022-12-24T12:13:49;12.73;;;7.70;;
5026;SDS011;2532;52.480;13.354;2022-12-24T12:16:19;10.53;;;8.20;;
5026;SDS011;2532;52.480;13.354;2022-12-24T12:18:53;11.10;;;8.30;;
5026;SDS011;2532;52.480;13.354;2022-12-24T12:21:26;12.33;;;7.67;;
5026;SDS011;2532;52.480;13.354;2022-12-24T12:24:03;13.43;;;7.73;;
5026;SDS011;2532;52.480;13.354;2022-12-24T12:26:41;15.40;;;10.40;;
5026;SDS011;2532;52.480;13.354;2022-12-24T12:29:13;13.30;;;8.33;;
5026;SDS011;2532;52.480;13.354;2022-12-24T12:31:50;9.67;;;7.27;;
5026;SDS011;2532;52.480;13.354;2022-12-24T12:34:25;12.23;;;7.37;;
5026;SDS011;2532;52.480;13.354;2022-12-24T12:36:59;11.00;;;7.17;;
5026;SDS011;2532;52.480;13.354;2022-12-24T12:39:30;10.90;;;8.17;;
5026;SDS011;2532;52.480;13.354;2022-12-24T12:41:58;15.20;;;7.70;;
5026;SDS011;2532;52.480;13.354;2022-12-24T12:44:47;13.13;;;8.37;;
5026;SDS011;2532;52.480;13.354;2022-12-24T12:50:13;18.30;;;8.53;;
5026;SDS011;2532;52.480;13.354;2022-12-24T12:52:48;25.97;;;8.87;;
5026;SDS011;2532;52.480;13.354;2022-12-24T12:55:31;21.43;;;9.40;;
5026;SDS011;2532;52.480;13.354;2022-12-24T12:58:09;19.70;;;9.37;;
5026;SDS011;2532;52.480;13.354;2022-12-24T13:00:41;21.87;;;7.73;;
5026;SDS011;2532;52.480;13.354;2022-12-24T13:12:14;14.27;;;7.07;;
5026;SDS011;2532;52.480;13.354;2022-12-24T13:15:05;16.07;;;7.30;;
5026;SDS011;2532;52.480;13.354;2022-12-24T13:18:00;21.90;;;8.40;;
5026;SDS011;2532;52.480;13.354;2022-12-24T13:20:45;20.80;;;8.07;;
5026;SDS011;2532;52.480;13.354;2022-12-24T13:23:16;19.73;;;7.67;;
5026;SDS011;2532;52.480;13.354;2022-12-24T13:25:46;28.33;;;8.87;;
5026;SDS011;2532;52.480;13.354;2022-12-24T13:28:16;20.13;;;8.47;;
5026;SDS011;2532;52.480;13.354;2022-12-24T13:33:56;20.57;;;7.77;;
5026;SDS011;2532;52.480;13.354;2022-12-24T13:39:29;21.43;;;8.40;;
5026;SDS011;2532;52.480;13.354;2022-12-24T13:45:41;22.80;;;7.80;;
5026;SDS011;2532;52.480;13.354;2022-12-24T13:48:26;17.13;;;7.60;;
5026;SDS011;2532;52.480;13.354;2022-12-24T13:50:57;20.67;;;7.90;;
5026;SDS011;2532;52.480;13.354;2022-12-24T13:53:30;25.87;;;8.50;;
5026;SDS011;2532;52.480;13.354;2022-12-24T13:56:02;18.30;;;7.67;;
5026;SDS011;2532;52.480;13.354;2022-12-24T13:58:33;24.13;;;6.60;;
5026;SDS011;2532;52.480;13.354;2022-12-24T14:01:03;27.40;;;8.03;;
5026;SDS011;2532;52.480;13.354;2022-12-24T14:03:34;30.07;;;7.70;;
5026;SDS011;2532;52.480;13.354;2022-12-24T14:06:08;18.27;;;6.70;;
5026;SDS011;2532;52.480;13.354;2022-12-24T14:08:39;28.23;;;7.17;;
5026;SDS011;2532;52.480;13.354;2022-12-24T14:11:11;24.60;;;8.10;;
5026;SDS011;2532;52.480;13.354;2022-12-24T14:13:49;31.23;;;9.23;;
5026;SDS011;2532;52.480;13.354;2022-12-24T14:16:19;24.87;;;8.10;;
5026;SDS011;2532;52.480;13.354;2022-12-24T14:18:49;28.40;;;8.70;;
5026;SDS011;2532;52.480;13.354;2022-12-24T14:21:24;30.57;;;8.63;;
5026;SDS011;2532;52.480;13.354;2022-12-24T14:23:55;26.90;;;8.20;;
5026;SDS011;2532;52.480;13.354;2022-12-24T14:26:26;17.90;;;8.60;;
5026;SDS011;2532;52.480;13.354;2022-12-24T14:28:58;28.37;;;9.30;;
5026;SDS011;2532;52.480;13.354;2022-12-24T14:31:28;24.57;;;8.27;;
5026;SDS011;2532;52.480;13.354;2022-12-24T14:34:04;29.43;;;8.50;;
5026;SDS011;2532;52.480;13.354;2022-12-24T14:36:32;37.70;;;9.30;;
5026;SDS011;2532;52.480;13.354;2022-12-24T14:38:59;29.27;;;10.53;;
5026;SDS011;2532;52.480;13.354;2022-12-24T14:41:31;30.30;;;8.70;;
5026;SDS011;2532;52.480;13.354;2022-12-24T14:44:07;30.93;;;10.73;;
5026;SDS011;2532;52.480;13.354;2022-12-24T14:46:42;26.77;;;8.53;;
5026;SDS011;2532;52.480;13.354;2022-12-24T14:49:16;27.70;;;8.40;;
5026;SDS011;2532;52.480;13.354;2022-12-24T14:51:55;33.17;;;11.93;;
5026;SDS011;2532;52.480;13.354;2022-12-24T14:54:36;95.93;;;48.53;;
5026;SDS011;2532;52.480;13.354;2022-12-24T14:57:19;78.50;;;35.50;;
5026;SDS011;2532;52.480;13.354;2022-12-24T14:59:48;69.67;;;26.60;;
5026;SDS011;2532;52.480;13.354;2022-12-24T15:02:36;110.43;;;55.33;;
5026;SDS011;2532;52.480;13.354;2022-12-24T15:05:12;28.07;;;12.30;;
5026;SDS011;2532;52.480;13.354;2022-12-24T15:07:45;25.50;;;8.87;;
5026;SDS011;2532;52.480;13.354;2022-12-24T15:10:28;26.13;;;10.20;;
5026;SDS011;2532;52.480;13.354;2022-12-24T15:13:02;32.37;;;11.97;;
5026;SDS011;2532;52.480;13.354;2022-12-24T15:15:31;37.60;;;15.50;;
5026;SDS011;2532;52.480;13.354;2022-12-24T15:17:59;39.90;;;15.87;;
5026;SDS011;2532;52.480;13.354;2022-12-24T15:20:27;35.17;;;14.53;;
5026;SDS011;2532;52.480;13.354;2022-12-24T15:22:56;40.33;;;21.10;;
5026;SDS011;2532;52.480;13.354;2022-12-24T15:25:25;33.80;;;12.50;;